Main page
METAR-TAF:

Airports :

Waddington, England

RAF Waddington

latitude: 53-10N, longitude: 000-31W, elevation: 68 m

Current weather observation

The report was made 1 hour and 3 minutes ago, at 10:50 UTC
Wind 11 kt from the West/Southwest
Temperature 20°C
Humidity 60%
Pressure 1017 hPa
Visibility 10 km or more
Few clouds at a height of 2600 ft

METAR: EGXW 261050Z 24011KT 9999 FEW026 20/12 Q1017 BLU NOSIG

Time: 12:53 (11:53 UTC)

Forecast

The report was made 1 hour and 30 minutes ago, at 10:23 UTC
Forecast valid from 26 at 12 UTC to 26 at 18 UTC
Wind 12 kt from the West/Southwest
Visibility 10 km or more
Few clouds at a height of 3500 ft

TAF: EGXW 261023Z 2612/2618 25012KT 9999 FEW035

METAR-TAF

Weather observations and forecasts of more than 4000 airports (METAR and TAF reports).

The available stations are represented by yellow and red dots on the map.

Hover mouse over dot to see the name of the station.

Then click to see weather observations and forecasts.

To change the map : click on the green buttons with a black cross to zoom in, on the green button with a dash to zoom out, or on the green arrows for adjacent maps.


METAR-TAF: